Amsterdam Airport Schiphol

EHAM | AMS

Amsterdam , North-Holland , Netherlands

Tuesday, October 22nd, 2019 | 05:49

Weather

EHAM 220325Z 19008KT 5000 BR SCT004 BKN020 12/11 Q1020 TEMPO BKN008

Charts

2 Available

Gates

289 Available

Runways

6 Available

Events

2 Events Coming Up Soon

Next event:
100 Years KLM |


New event